ADDS TAF Board (Experimental) INFO Settings
IDs: Format: Expanded Condensed

KDTW - Detroit Metro/Wayne, MI, US

Issued at 2008 UTC 30 Jul 2015
Updated at: 2013 UTC 30 Jul 2015
Time1953Z 30/21Z 30/22Z 30/23Z 31/00Z 31/01Z 31/02Z 31/03Z 31/04Z 31/05Z 31/06Z 31/07Z 31/08Z 31/09Z
Type OBS PRVL PRVL PRVL PRVL PRVL PRVL PRVL PRVL PRVL PRVL PRVL PRVL PRVL
VIS 10 >6 >6 >6 >6 >6 >6 >6 >6 >6 >6 >6 >6 >6
CIG -- -- -- -- -- -- -- -- -- -- -- -- -- --
Cover FEW FEW FEW FEW SKC SKC SKC SKC SKC SKC SKC SKC SKC SKC
FltCat VFR VFR VFR VFR VFR VFR VFR VFR VFR VFR VFR VFR VFR VFR
WX -- -- -- -- -- -- -- -- -- -- -- -- -- --
WDir 250 280 280 280 250 250 250 250 250 250 250 250 250 250
WSpd 12 13 13 13 8 8 8 8 8 8 8 8 8 8
WGst 19 20 20 20 -- -- -- -- -- -- -- -- -- --
R03/21
XWnd 8 12 12 12 5 5 5 5 5 5 5 5 5 5
XGst 12 19 19 19 -- -- -- -- -- -- -- -- -- --
HWnd -9 -4 -4 -4 -6 -6 -6 -6 -6 -6 -6 -6 -6 -6
HGst -14 -7 -7 -7 -- -- -- -- -- -- -- -- -- --
R04/22
XWnd 8 12 12 12 5 5 5 5 5 5 5 5 5 5
XGst 12 19 19 19 -- -- -- -- -- -- -- -- -- --
HWnd -9 -4 -4 -4 -6 -6 -6 -6 -6 -6 -6 -6 -6 -6
HGst -14 -7 -7 -7 -- -- -- -- -- -- -- -- -- --
R09/27
XWnd -4 2 2 2 -3 -3 -3 -3 -3 -3 -3 -3 -3 -3
XGst -6 4 4 4 -- -- -- -- -- -- -- -- -- --
HWnd -11 -13 -13 -13 -8 -8 -8 -8 -8 -8 -8 -8 -8 -8
HGst -18 -20 -20 -20 -- -- -- -- -- -- -- -- -- --

NOTE: TEMPO conditions in [brackets]. Keep in mind TEMPO conditions might be better (lower impact) than prevailing conditions.

Raw TAF
KDTW 302008Z 3020/3124 28013G20KT P6SM FEW060
  FM310000 25008KT P6SM SKC
  FM311600 25015G25KT P6SM SCT060


Raw METAR
KDTW 301953Z 25012G19KT 10SM FEW070 30/13 A2995 RMK AO2 SLP136 T03000128
KDTW 301853Z 27013KT 10SM FEW065 29/14 A2995 RMK AO2 SLP139 T02940139
KDTW 301753Z 25012KT 10SM FEW060 29/13 A2997 RMK AO2 SLP143 T02890133 10294 20211 58003 $

METAR Board
Radar Display
Forecast Discussion

TAF Board Legend

Potential Impact
Threat None Slight Moderate High
Visibility (sm) ≥5.1 5.1>X≥3 3>X≥1 <1
Ceiling (100 ft) ≥30.1 30.1>X≥10 10>X≥5 <5
Wind Speed (kt) <10 10≤X<20 20≤X<30 ≥30
Wind Gust (kt) <15 15≤X<25 25≤X<35 ≥35
Weather No Wx Reported VCTS,-TS,-FZRA,SN TS,FZRA +TS,+FZRA,+SN